sensor_id;sensor_type;location;lat;lon;timestamp;pressure;altitude;pressure_sealevel;temperature;humidity
11712;BME280;5912;51.034;6.984;2023-05-29T00:01:20;56244.16;;;-142.13;50.59
11712;BME280;5912;51.034;6.984;2023-05-29T00:03:46;56196.06;;;-142.13;50.75
11712;BME280;5912;51.034;6.984;2023-05-29T00:06:11;56208.09;;;-142.13;51.03
11712;BME280;5912;51.034;6.984;2023-05-29T00:08:37;56206.09;;;-142.13;51.40
11712;BME280;5912;51.034;6.984;2023-05-29T00:11:03;56226.13;;;-142.13;51.56
11712;BME280;5912;51.034;6.984;2023-05-29T00:13:28;56208.09;;;-142.13;51.13
11712;BME280;5912;51.034;6.984;2023-05-29T00:15:53;56220.13;;;-142.13;51.71
11712;BME280;5912;51.034;6.984;2023-05-29T00:18:19;56200.09;;;-142.13;51.99
11712;BME280;5912;51.034;6.984;2023-05-29T00:20:44;56242.16;;;-142.13;52.51
11712;BME280;5912;51.034;6.984;2023-05-29T00:23:09;56236.13;;;-142.13;52.86
11712;BME280;5912;51.034;6.984;2023-05-29T00:25:35;56196.06;;;-142.13;53.15
11712;BME280;5912;51.034;6.984;2023-05-29T00:28:00;56216.09;;;-142.13;53.18
11712;BME280;5912;51.034;6.984;2023-05-29T00:30:26;56224.13;;;-142.13;53.50
11712;BME280;5912;51.034;6.984;2023-05-29T00:32:51;56210.09;;;-142.13;53.76
11712;BME280;5912;51.034;6.984;2023-05-29T00:35:19;56228.13;;;-142.13;53.93
11712;BME280;5912;51.034;6.984;2023-05-29T00:37:45;56228.13;;;-142.13;54.11
11712;BME280;5912;51.034;6.984;2023-05-29T00:40:10;56242.16;;;-142.13;54.07
11712;BME280;5912;51.034;6.984;2023-05-29T00:42:36;56244.16;;;-142.13;54.10
11712;BME280;5912;51.034;6.984;2023-05-29T00:45:02;56250.16;;;-142.13;54.25
11712;BME280;5912;51.034;6.984;2023-05-29T00:47:28;56250.16;;;-142.13;54.32
11712;BME280;5912;51.034;6.984;2023-05-29T00:49:53;56232.13;;;-142.13;54.11
11712;BME280;5912;51.034;6.984;2023-05-29T00:52:20;56266.19;;;-142.13;54.53
11712;BME280;5912;51.034;6.984;2023-05-29T00:54:46;56258.16;;;-142.13;54.82
11712;BME280;5912;51.034;6.984;2023-05-29T00:57:12;56240.16;;;-142.13;54.85
11712;BME280;5912;51.034;6.984;2023-05-29T00:59:39;56224.13;;;-142.13;54.84
11712;BME280;5912;51.034;6.984;2023-05-29T01:02:06;56260.19;;;-142.13;55.30
11712;BME280;5912;51.034;6.984;2023-05-29T01:04:31;56240.16;;;-142.13;55.56
11712;BME280;5912;51.034;6.984;2023-05-29T01:07:00;56240.16;;;-142.13;55.72
11712;BME280;5912;51.034;6.984;2023-05-29T01:09:28;56270.19;;;-142.13;55.83
11712;BME280;5912;51.034;6.984;2023-05-29T01:12:03;56248.16;;;-142.13;55.81
11712;BME280;5912;51.034;6.984;2023-05-29T01:14:38;56250.16;;;-142.13;55.74
11712;BME280;5912;51.034;6.984;2023-05-29T01:23:02;56276.19;;;-142.13;55.91
11712;BME280;5912;51.034;6.984;2023-05-29T01:28:17;56272.19;;;-142.13;55.74
11712;BME280;5912;51.034;6.984;2023-05-29T01:30:45;56256.16;;;-142.13;56.05
11712;BME280;5912;51.034;6.984;2023-05-29T01:33:10;56286.22;;;-142.13;56.32
11712;BME280;5912;51.034;6.984;2023-05-29T01:35:36;56276.19;;;-142.13;56.48
11712;BME280;5912;51.034;6.984;2023-05-29T01:38:01;56258.16;;;-142.13;56.19
11712;BME280;5912;51.034;6.984;2023-05-29T01:40:27;56246.16;;;-142.13;56.63
11712;BME280;5912;51.034;6.984;2023-05-29T01:42:52;56232.13;;;-142.13;56.46
11712;BME280;5912;51.034;6.984;2023-05-29T01:45:17;56256.16;;;-142.13;56.34
11712;BME280;5912;51.034;6.984;2023-05-29T01:47:43;56276.19;;;-142.13;56.08
11712;BME280;5912;51.034;6.984;2023-05-29T01:50:09;56348.31;;;-142.13;56.26
11712;BME280;5912;51.034;6.984;2023-05-29T01:52:36;56286.22;;;-142.13;56.04
11712;BME280;5912;51.034;6.984;2023-05-29T01:55:01;56268.19;;;-142.13;55.96
11712;BME280;5912;51.034;6.984;2023-05-29T01:57:27;56254.16;;;-142.13;55.56
11712;BME280;5912;51.034;6.984;2023-05-29T01:59:53;56264.19;;;-142.13;55.02
11712;BME280;5912;51.034;6.984;2023-05-29T02:02:21;56278.19;;;-142.13;54.93
11712;BME280;5912;51.034;6.984;2023-05-29T02:04:47;56274.19;;;-142.13;55.00
11712;BME280;5912;51.034;6.984;2023-05-29T02:07:12;56298.22;;;-142.13;54.74
11712;BME280;5912;51.034;6.984;2023-05-29T02:09:38;56272.19;;;-142.13;54.79
11712;BME280;5912;51.034;6.984;2023-05-29T02:12:03;56260.19;;;-142.13;54.99
11712;BME280;5912;51.034;6.984;2023-05-29T02:14:29;56268.19;;;-142.13;54.78
11712;BME280;5912;51.034;6.984;2023-05-29T02:16:57;56250.16;;;-142.13;54.94
11712;BME280;5912;51.034;6.984;2023-05-29T02:19:22;56264.19;;;-142.13;54.51
11712;BME280;5912;51.034;6.984;2023-05-29T02:21:50;56248.16;;;-142.13;54.61
11712;BME280;5912;51.034;6.984;2023-05-29T02:24:15;56272.19;;;-142.13;54.66
11712;BME280;5912;51.034;6.984;2023-05-29T02:26:40;56298.22;;;-142.13;54.70
11712;BME280;5912;51.034;6.984;2023-05-29T02:29:07;56382.38;;;-142.13;55.01
11712;BME280;5912;51.034;6.984;2023-05-29T02:31:32;56266.19;;;-142.13;55.37
11712;BME280;5912;51.034;6.984;2023-05-29T02:33:58;56306.25;;;-142.13;55.29
11712;BME280;5912;51.034;6.984;2023-05-29T02:36:23;56268.19;;;-142.13;55.79
11712;BME280;5912;51.034;6.984;2023-05-29T02:38:48;56276.19;;;-142.13;55.49
11712;BME280;5912;51.034;6.984;2023-05-29T02:41:14;56278.19;;;-142.13;55.63
11712;BME280;5912;51.034;6.984;2023-05-29T02:43:39;56282.22;;;-142.13;55.81
11712;BME280;5912;51.034;6.984;2023-05-29T02:46:05;56248.16;;;-142.13;55.95
11712;BME280;5912;51.034;6.984;2023-05-29T02:48:30;56274.19;;;-142.13;56.26
11712;BME280;5912;51.034;6.984;2023-05-29T02:50:55;56306.25;;;-142.13;56.51
11712;BME280;5912;51.034;6.984;2023-05-29T02:53:21;56298.22;;;-142.13;56.77
11712;BME280;5912;51.034;6.984;2023-05-29T02:55:46;56280.22;;;-142.13;57.00
11712;BME280;5912;51.034;6.984;2023-05-29T02:58:12;56322.28;;;-142.13;57.11
11712;BME280;5912;51.034;6.984;2023-05-29T03:00:37;56286.22;;;-142.13;57.00
11712;BME280;5912;51.034;6.984;2023-05-29T03:03:03;56294.22;;;-142.13;57.72
11712;BME280;5912;51.034;6.984;2023-05-29T03:05:29;56288.22;;;-142.13;57.88
11712;BME280;5912;51.034;6.984;2023-05-29T03:07:55;56280.22;;;-142.13;58.38
11712;BME280;5912;51.034;6.984;2023-05-29T03:10:20;56288.22;;;-142.13;58.37
11712;BME280;5912;51.034;6.984;2023-05-29T03:12:46;56296.22;;;-142.13;58.59
11712;BME280;5912;51.034;6.984;2023-05-29T03:15:11;56312.25;;;-142.13;58.86
11712;BME280;5912;51.034;6.984;2023-05-29T03:17:37;56310.25;;;-142.13;59.02
11712;BME280;5912;51.034;6.984;2023-05-29T03:20:04;56296.22;;;-142.13;59.21
11712;BME280;5912;51.034;6.984;2023-05-29T03:22:34;56284.22;;;-142.13;59.50
11712;BME280;5912;51.034;6.984;2023-05-29T03:24:59;56300.25;;;-142.13;59.67
11712;BME280;5912;51.034;6.984;2023-05-29T03:27:24;56310.25;;;-142.13;60.07
11712;BME280;5912;51.034;6.984;2023-05-29T03:29:51;56298.22;;;-142.13;59.99
11712;BME280;5912;51.034;6.984;2023-05-29T03:32:17;56308.25;;;-142.13;60.27
11712;BME280;5912;51.034;6.984;2023-05-29T03:34:43;56326.28;;;-142.13;60.42
11712;BME280;5912;51.034;6.984;2023-05-29T03:37:08;56310.25;;;-142.13;60.64
11712;BME280;5912;51.034;6.984;2023-05-29T03:39:33;56272.19;;;-142.13;60.20
11712;BME280;5912;51.034;6.984;2023-05-29T03:41:58;56320.28;;;-142.13;60.46
11712;BME280;5912;51.034;6.984;2023-05-29T03:44:24;56296.22;;;-142.13;60.25
11712;BME280;5912;51.034;6.984;2023-05-29T03:46:51;56312.25;;;-142.13;60.73
11712;BME280;5912;51.034;6.984;2023-05-29T03:49:16;56310.25;;;-142.13;60.51
11712;BME280;5912;51.034;6.984;2023-05-29T03:51:41;56314.25;;;-142.13;60.51
11712;BME280;5912;51.034;6.984;2023-05-29T03:54:06;56304.25;;;-142.13;60.34
11712;BME280;5912;51.034;6.984;2023-05-29T03:56:32;56304.25;;;-142.13;60.26
11712;BME280;5912;51.034;6.984;2023-05-29T03:58:57;56296.22;;;-142.13;60.37
11712;BME280;5912;51.034;6.984;2023-05-29T04:01:22;56326.28;;;-142.13;60.35
11712;BME280;5912;51.034;6.984;2023-05-29T04:03:48;56306.25;;;-142.13;60.32
11712;BME280;5912;51.034;6.984;2023-05-29T04:06:13;56312.25;;;-142.13;60.35
11712;BME280;5912;51.034;6.984;2023-05-29T04:08:38;56304.25;;;-142.13;60.42
11712;BME280;5912;51.034;6.984;2023-05-29T04:11:04;56314.25;;;-142.13;60.53
11712;BME280;5912;51.034;6.984;2023-05-29T04:13:29;56314.25;;;-142.13;60.27
11712;BME280;5912;51.034;6.984;2023-05-29T04:15:55;56306.25;;;-142.13;60.32
11712;BME280;5912;51.034;6.984;2023-05-29T04:18:20;56294.22;;;-142.13;60.14
11712;BME280;5912;51.034;6.984;2023-05-29T04:20:46;56308.25;;;-142.13;60.16
11712;BME280;5912;51.034;6.984;2023-05-29T04:23:12;56330.28;;;-142.13;60.37
11712;BME280;5912;51.034;6.984;2023-05-29T04:25:38;56324.28;;;-142.13;60.29
11712;BME280;5912;51.034;6.984;2023-05-29T04:28:03;56302.25;;;-142.13;60.37
11712;BME280;5912;51.034;6.984;2023-05-29T04:30:28;56340.31;;;-142.13;60.37
11712;BME280;5912;51.034;6.984;2023-05-29T04:32:54;56304.25;;;-142.13;60.14
11712;BME280;5912;51.034;6.984;2023-05-29T04:35:19;56306.25;;;-142.13;60.23
11712;BME280;5912;51.034;6.984;2023-05-29T04:37:47;56300.25;;;-142.13;60.06
11712;BME280;5912;51.034;6.984;2023-05-29T04:40:12;56294.22;;;-142.13;59.90
11712;BME280;5912;51.034;6.984;2023-05-29T04:42:39;56304.25;;;-142.13;59.65
11712;BME280;5912;51.034;6.984;2023-05-29T04:45:07;56308.25;;;-142.13;59.73
11712;BME280;5912;51.034;6.984;2023-05-29T04:47:33;56302.25;;;-142.13;59.63
11712;BME280;5912;51.034;6.984;2023-05-29T04:49:59;56304.25;;;-142.13;59.56
11712;BME280;5912;51.034;6.984;2023-05-29T04:52:25;56312.25;;;-142.13;59.38
11712;BME280;5912;51.034;6.984;2023-05-29T04:54:50;56316.25;;;-142.13;59.25
11712;BME280;5912;51.034;6.984;2023-05-29T04:57:16;56298.22;;;-142.13;59.17
11712;BME280;5912;51.034;6.984;2023-05-29T04:59:41;56318.25;;;-142.13;59.21
11712;BME280;5912;51.034;6.984;2023-05-29T05:02:06;56288.22;;;-142.13;58.96
11712;BME280;5912;51.034;6.984;2023-05-29T05:04:32;56282.22;;;-142.13;58.62
11712;BME280;5912;51.034;6.984;2023-05-29T05:06:57;56274.19;;;-142.13;58.17
11712;BME280;5912;51.034;6.984;2023-05-29T05:09:23;56276.19;;;-142.13;57.15
11712;BME280;5912;51.034;6.984;2023-05-29T05:11:48;56292.22;;;-142.13;56.93
11712;BME280;5912;51.034;6.984;2023-05-29T05:14:14;56292.22;;;-142.13;56.98
11712;BME280;5912;51.034;6.984;2023-05-29T05:16:39;56274.19;;;-142.13;55.94
11712;BME280;5912;51.034;6.984;2023-05-29T05:19:04;56284.22;;;-142.13;55.44
11712;BME280;5912;51.034;6.984;2023-05-29T05:21:30;56238.13;;;-142.13;55.46
11712;BME280;5912;51.034;6.984;2023-05-29T05:23:56;56264.19;;;-142.13;54.93
11712;BME280;5912;51.034;6.984;2023-05-29T05:26:22;56256.16;;;-142.13;54.70
11712;BME280;5912;51.034;6.984;2023-05-29T05:28:47;56260.19;;;-142.13;54.80
11712;BME280;5912;51.034;6.984;2023-05-29T05:31:12;56252.16;;;-142.13;54.65
11712;BME280;5912;51.034;6.984;2023-05-29T05:33:38;56262.19;;;-142.13;53.70
11712;BME280;5912;51.034;6.984;2023-05-29T05:36:03;56212.09;;;-142.13;52.82
11712;BME280;5912;51.034;6.984;2023-05-29T05:38:28;56250.16;;;-142.13;52.11
11712;BME280;5912;51.034;6.984;2023-05-29T05:40:54;56236.13;;;-142.13;51.60
11712;BME280;5912;51.034;6.984;2023-05-29T05:43:21;56264.19;;;-142.13;51.39
11712;BME280;5912;51.034;6.984;2023-05-29T05:45:46;56252.16;;;-142.13;51.39
11712;BME280;5912;51.034;6.984;2023-05-29T05:48:11;56238.13;;;-142.13;51.25
11712;BME280;5912;51.034;6.984;2023-05-29T05:50:37;56218.09;;;-142.13;51.67
11712;BME280;5912;51.034;6.984;2023-05-29T05:53:02;56226.13;;;-142.13;50.72
11712;BME280;5912;51.034;6.984;2023-05-29T05:55:27;56236.13;;;-142.13;50.80
11712;BME280;5912;51.034;6.984;2023-05-29T05:57:53;56248.16;;;-142.13;50.40
11712;BME280;5912;51.034;6.984;2023-05-29T06:00:20;56230.13;;;-142.13;49.19
11712;BME280;5912;51.034;6.984;2023-05-29T06:02:45;56266.19;;;-142.13;49.01
11712;BME280;5912;51.034;6.984;2023-05-29T06:05:11;56188.06;;;-142.13;49.04
11712;BME280;5912;51.034;6.984;2023-05-29T06:07:37;56224.13;;;-142.13;48.31
11712;BME280;5912;51.034;6.984;2023-05-29T06:10:03;56228.13;;;-142.13;47.78
11712;BME280;5912;51.034;6.984;2023-05-29T06:12:29;56200.09;;;-142.13;47.73
11712;BME280;5912;51.034;6.984;2023-05-29T06:14:55;56210.09;;;-142.13;46.69
11712;BME280;5912;51.034;6.984;2023-05-29T06:17:20;56180.06;;;-142.13;45.78
11712;BME280;5912;51.034;6.984;2023-05-29T06:19:46;56204.09;;;-142.13;45.13
11712;BME280;5912;51.034;6.984;2023-05-29T06:22:12;56168.03;;;-142.13;44.59
11712;BME280;5912;51.034;6.984;2023-05-29T06:24:37;56164.03;;;-142.13;43.94
11712;BME280;5912;51.034;6.984;2023-05-29T06:27:03;56137.97;;;-142.13;42.60
11712;BME280;5912;51.034;6.984;2023-05-29T06:29:28;56111.94;;;-142.13;40.80
11712;BME280;5912;51.034;6.984;2023-05-29T06:31:53;56087.91;;;-142.13;39.39
11712;BME280;5912;51.034;6.984;2023-05-29T06:34:19;56055.84;;;-142.13;37.72
11712;BME280;5912;51.034;6.984;2023-05-29T06:36:44;56035.81;;;-142.13;36.45
11712;BME280;5912;51.034;6.984;2023-05-29T06:39:09;56019.81;;;-142.13;35.86
11712;BME280;5912;51.034;6.984;2023-05-29T06:41:35;56013.78;;;-142.13;35.04
11712;BME280;5912;51.034;6.984;2023-05-29T06:44:00;55995.78;;;-142.13;34.81
11712;BME280;5912;51.034;6.984;2023-05-29T06:46:26;55993.75;;;-142.13;33.93
11712;BME280;5912;51.034;6.984;2023-05-29T06:48:51;55979.75;;;-142.13;33.70
11712;BME280;5912;51.034;6.984;2023-05-29T06:51:17;55981.75;;;-142.13;33.74
11712;BME280;5912;51.034;6.984;2023-05-29T06:53:42;55955.72;;;-142.13;33.41
11712;BME280;5912;51.034;6.984;2023-05-29T06:56:08;55921.66;;;-142.13;33.08
11712;BME280;5912;51.034;6.984;2023-05-29T06:58:33;55909.63;;;-142.13;32.73
11712;BME280;5912;51.034;6.984;2023-05-29T07:00:59;55927.66;;;-142.13;31.51
11712;BME280;5912;51.034;6.984;2023-05-29T07:03:25;55899.63;;;-142.13;31.49
11712;BME280;5912;51.034;6.984;2023-05-29T07:05:51;55871.59;;;-142.13;30.85
11712;BME280;5912;51.034;6.984;2023-05-29T07:08:16;55871.59;;;-142.13;30.76
11712;BME280;5912;51.034;6.984;2023-05-29T07:10:41;55865.56;;;-142.13;30.53
11712;BME280;5912;51.034;6.984;2023-05-29T07:13:07;55859.56;;;-142.13;30.12
11712;BME280;5912;51.034;6.984;2023-05-29T07:15:33;55831.53;;;-142.13;30.09
11712;BME280;5912;51.034;6.984;2023-05-29T07:17:58;55817.50;;;-142.13;29.51
11712;BME280;5912;51.034;6.984;2023-05-29T07:20:23;55783.47;;;-142.13;29.31
11712;BME280;5912;51.034;6.984;2023-05-29T07:22:48;55799.47;;;-142.13;28.42
11712;BME280;5912;51.034;6.984;2023-05-29T07:25:14;55781.44;;;-142.13;28.24
11712;BME280;5912;51.034;6.984;2023-05-29T07:27:40;55767.44;;;-142.13;28.49
11712;BME280;5912;51.034;6.984;2023-05-29T07:30:05;55783.47;;;-142.13;27.85
11712;BME280;5912;51.034;6.984;2023-05-29T07:32:31;55755.41;;;-142.13;28.15
11712;BME280;5912;51.034;6.984;2023-05-29T07:34:57;55779.44;;;-142.13;28.00
11712;BME280;5912;51.034;6.984;2023-05-29T07:37:22;55767.44;;;-142.13;27.71
11712;BME280;5912;51.034;6.984;2023-05-29T07:39:47;55777.44;;;-142.13;27.96
11712;BME280;5912;51.034;6.984;2023-05-29T07:42:13;55755.41;;;-142.13;27.97
11712;BME280;5912;51.034;6.984;2023-05-29T07:44:38;55747.41;;;-142.13;27.22
11712;BME280;5912;51.034;6.984;2023-05-29T07:47:03;55727.38;;;-142.13;26.94
11712;BME280;5912;51.034;6.984;2023-05-29T07:49:29;55713.34;;;-142.13;27.36
11712;BME280;5912;51.034;6.984;2023-05-29T07:51:55;55695.31;;;-142.13;26.43
11712;BME280;5912;51.034;6.984;2023-05-29T07:54:21;55689.31;;;-142.13;26.48
11712;BME280;5912;51.034;6.984;2023-05-29T07:56:46;55667.28;;;-142.13;25.87
11712;BME280;5912;51.034;6.984;2023-05-29T07:59:12;55693.31;;;-142.13;25.47
11712;BME280;5912;51.034;6.984;2023-05-29T08:01:38;55695.31;;;-142.13;25.62
11712;BME280;5912;51.034;6.984;2023-05-29T08:04:05;55673.28;;;-142.13;26.01
11712;BME280;5912;51.034;6.984;2023-05-29T08:06:30;55683.31;;;-142.13;26.21
11712;BME280;5912;51.034;6.984;2023-05-29T08:08:58;55655.28;;;-142.13;25.87
11712;BME280;5912;51.034;6.984;2023-05-29T08:11:23;55673.28;;;-142.13;26.15
11712;BME280;5912;51.034;6.984;2023-05-29T08:13:48;55655.28;;;-142.13;25.60
11712;BME280;5912;51.034;6.984;2023-05-29T08:16:14;55639.25;;;-142.13;25.31
11712;BME280;5912;51.034;6.984;2023-05-29T08:18:41;55669.28;;;-142.13;25.36
11712;BME280;5912;51.034;6.984;2023-05-29T08:21:06;55659.28;;;-142.13;25.68
11712;BME280;5912;51.034;6.984;2023-05-29T08:23:31;55679.31;;;-142.13;25.51
11712;BME280;5912;51.034;6.984;2023-05-29T08:25:57;55669.28;;;-142.13;25.63
11712;BME280;5912;51.034;6.984;2023-05-29T08:28:22;55675.31;;;-142.13;25.63
11712;BME280;5912;51.034;6.984;2023-05-29T08:30:47;55695.31;;;-142.13;25.43
11712;BME280;5912;51.034;6.984;2023-05-29T08:33:13;55673.28;;;-142.13;25.37
11712;BME280;5912;51.034;6.984;2023-05-29T08:35:38;55681.31;;;-142.13;25.19
11712;BME280;5912;51.034;6.984;2023-05-29T08:38:03;55669.28;;;-142.13;25.66
11712;BME280;5912;51.034;6.984;2023-05-29T08:40:29;55673.28;;;-142.13;25.79
11712;BME280;5912;51.034;6.984;2023-05-29T08:42:58;55655.28;;;-142.13;25.72
11712;BME280;5912;51.034;6.984;2023-05-29T08:45:24;55675.31;;;-142.13;25.08
11712;BME280;5912;51.034;6.984;2023-05-29T08:47:53;55671.28;;;-142.13;25.31
11712;BME280;5912;51.034;6.984;2023-05-29T08:50:20;55771.44;;;-142.13;25.72
11712;BME280;5912;51.034;6.984;2023-05-29T08:52:46;55735.38;;;-142.13;25.83
11712;BME280;5912;51.034;6.984;2023-05-29T08:55:12;55715.34;;;-142.13;26.29
11712;BME280;5912;51.034;6.984;2023-05-29T08:57:38;55699.34;;;-142.13;26.24
11712;BME280;5912;51.034;6.984;2023-05-29T09:00:04;55739.38;;;-142.13;26.36
11712;BME280;5912;51.034;6.984;2023-05-29T09:02:39;55751.41;;;-142.13;27.29
11712;BME280;5912;51.034;6.984;2023-05-29T09:05:04;55793.47;;;-142.13;27.46
11712;BME280;5912;51.034;6.984;2023-05-29T09:07:31;55755.41;;;-142.13;26.96
11712;BME280;5912;51.034;6.984;2023-05-29T09:09:57;55755.41;;;-142.13;27.66
11712;BME280;5912;51.034;6.984;2023-05-29T09:12:24;55755.41;;;-142.13;27.01
11712;BME280;5912;51.034;6.984;2023-05-29T09:14:50;55775.44;;;-142.13;27.45
11712;BME280;5912;51.034;6.984;2023-05-29T09:17:15;55741.41;;;-142.13;27.10
11712;BME280;5912;51.034;6.984;2023-05-29T09:19:41;55775.44;;;-142.13;26.72
11712;BME280;5912;51.034;6.984;2023-05-29T09:22:13;55957.72;;;-142.13;27.13
11712;BME280;5912;51.034;6.984;2023-05-29T09:24:42;55779.44;;;-142.13;27.68
11712;BME280;5912;51.034;6.984;2023-05-29T09:27:09;55763.44;;;-142.13;27.58
11712;BME280;5912;51.034;6.984;2023-05-29T09:29:45;55753.41;;;-142.13;27.08
11712;BME280;5912;51.034;6.984;2023-05-29T09:32:13;55739.38;;;-142.13;27.59
11712;BME280;5912;51.034;6.984;2023-05-29T09:34:39;55733.38;;;-142.13;27.11
11712;BME280;5912;51.034;6.984;2023-05-29T09:37:06;55761.41;;;-142.13;27.47
11712;BME280;5912;51.034;6.984;2023-05-29T09:42:07;55739.38;;;-142.13;27.45
11712;BME280;5912;51.034;6.984;2023-05-29T09:44:32;55765.44;;;-142.13;27.92
11712;BME280;5912;51.034;6.984;2023-05-29T09:46:59;55769.44;;;-142.13;27.61
11712;BME280;5912;51.034;6.984;2023-05-29T09:49:25;55783.47;;;-142.13;28.81
11712;BME280;5912;51.034;6.984;2023-05-29T09:51:56;55767.44;;;-142.13;27.84
11712;BME280;5912;51.034;6.984;2023-05-29T09:54:26;55757.41;;;-142.13;27.70
11712;BME280;5912;51.034;6.984;2023-05-29T09:56:55;55771.44;;;-142.13;28.13
11712;BME280;5912;51.034;6.984;2023-05-29T09:59:23;55739.38;;;-142.13;27.97
11712;BME280;5912;51.034;6.984;2023-05-29T10:02:03;55771.44;;;-142.13;28.06
11712;BME280;5912;51.034;6.984;2023-05-29T10:04:33;55755.41;;;-142.13;27.48
11712;BME280;5912;51.034;6.984;2023-05-29T10:07:08;55765.44;;;-142.13;27.07
11712;BME280;5912;51.034;6.984;2023-05-29T10:09:44;55781.44;;;-142.13;28.16
11712;BME280;5912;51.034;6.984;2023-05-29T10:12:11;55827.53;;;-142.13;27.62
11712;BME280;5912;51.034;6.984;2023-05-29T10:14:38;55767.44;;;-142.13;27.55
11712;BME280;5912;51.034;6.984;2023-05-29T10:17:07;55773.44;;;-142.13;28.12
11712;BME280;5912;51.034;6.984;2023-05-29T10:19:36;55779.44;;;-142.13;28.28
11712;BME280;5912;51.034;6.984;2023-05-29T10:22:04;55775.44;;;-142.13;27.75
11712;BME280;5912;51.034;6.984;2023-05-29T10:24:31;55767.44;;;-142.13;27.77
11712;BME280;5912;51.034;6.984;2023-05-29T10:26:57;55769.44;;;-142.13;27.66
11712;BME280;5912;51.034;6.984;2023-05-29T10:29:39;55777.44;;;-142.13;27.99
11712;BME280;5912;51.034;6.984;2023-05-29T10:32:19;55759.41;;;-142.13;28.22
11712;BME280;5912;51.034;6.984;2023-05-29T10:35:10;55791.47;;;-142.13;27.90
11712;BME280;5912;51.034;6.984;2023-05-29T10:37:43;55793.47;;;-142.13;27.65
11712;BME280;5912;51.034;6.984;2023-05-29T10:40:11;55811.50;;;-142.13;28.50
11712;BME280;5912;51.034;6.984;2023-05-29T10:45:06;55789.47;;;-142.13;28.17
11712;BME280;5912;51.034;6.984;2023-05-29T10:47:32;55779.44;;;-142.13;27.95
11712;BME280;5912;51.034;6.984;2023-05-29T10:50:00;55741.41;;;-142.13;27.99
11712;BME280;5912;51.034;6.984;2023-05-29T10:52:30;55751.41;;;-142.13;27.46
11712;BME280;5912;51.034;6.984;2023-05-29T10:54:56;55777.44;;;-142.13;27.65
11712;BME280;5912;51.034;6.984;2023-05-29T10:57:22;55741.41;;;-142.13;27.40
11712;BME280;5912;51.034;6.984;2023-05-29T10:59:57;55723.38;;;-142.13;27.34
11712;BME280;5912;51.034;6.984;2023-05-29T11:02:23;55725.38;;;-142.13;27.27
11712;BME280;5912;51.034;6.984;2023-05-29T11:05:19;55717.34;;;-142.13;27.26
11712;BME280;5912;51.034;6.984;2023-05-29T11:08:01;55711.34;;;-142.13;27.47
11712;BME280;5912;51.034;6.984;2023-05-29T11:10:44;55709.34;;;-142.13;26.91
11712;BME280;5912;51.034;6.984;2023-05-29T11:13:10;55709.34;;;-142.13;26.24
11712;BME280;5912;51.034;6.984;2023-05-29T11:15:36;55717.34;;;-142.13;26.38
11712;BME280;5912;51.034;6.984;2023-05-29T11:18:07;55727.38;;;-142.13;26.69
11712;BME280;5912;51.034;6.984;2023-05-29T11:25:23;55727.38;;;-142.13;26.88
11712;BME280;5912;51.034;6.984;2023-05-29T11:27:49;55719.38;;;-142.13;27.01
11712;BME280;5912;51.034;6.984;2023-05-29T11:30:14;55753.41;;;-142.13;26.88
11712;BME280;5912;51.034;6.984;2023-05-29T11:32:43;55729.38;;;-142.13;26.91
11712;BME280;5912;51.034;6.984;2023-05-29T11:35:10;55733.38;;;-142.13;26.78
11712;BME280;5912;51.034;6.984;2023-05-29T11:37:40;55709.34;;;-142.13;27.07
11712;BME280;5912;51.034;6.984;2023-05-29T11:40:09;55701.34;;;-142.13;26.53
11712;BME280;5912;51.034;6.984;2023-05-29T11:42:35;55695.31;;;-142.13;26.18
11712;BME280;5912;51.034;6.984;2023-05-29T11:45:14;55713.34;;;-142.13;26.67
11712;BME280;5912;51.034;6.984;2023-05-29T11:47:59;55713.34;;;-142.13;26.61
11712;BME280;5912;51.034;6.984;2023-05-29T11:50:32;55713.34;;;-142.13;26.31
11712;BME280;5912;51.034;6.984;2023-05-29T11:52:59;55689.31;;;-142.13;26.44
11712;BME280;5912;51.034;6.984;2023-05-29T11:55:26;55703.34;;;-142.13;26.30
11712;BME280;5912;51.034;6.984;2023-05-29T11:57:56;55691.31;;;-142.13;25.80
11712;BME280;5912;51.034;6.984;2023-05-29T12:00:23;55709.34;;;-142.13;25.90
11712;BME280;5912;51.034;6.984;2023-05-29T12:02:50;55679.31;;;-142.13;26.36
11712;BME280;5912;51.034;6.984;2023-05-29T12:05:17;55705.34;;;-142.13;26.54
11712;BME280;5912;51.034;6.984;2023-05-29T12:07:47;55679.31;;;-142.13;26.01
11712;BME280;5912;51.034;6.984;2023-05-29T12:10:16;55689.31;;;-142.13;25.76
11712;BME280;5912;51.034;6.984;2023-05-29T12:12:42;55683.31;;;-142.13;25.45
11712;BME280;5912;51.034;6.984;2023-05-29T12:15:08;55673.28;;;-142.13;25.65
11712;BME280;5912;51.034;6.984;2023-05-29T12:17:35;55691.31;;;-142.13;25.80
11712;BME280;5912;51.034;6.984;2023-05-29T12:20:02;55677.31;;;-142.13;26.12
11712;BME280;5912;51.034;6.984;2023-05-29T12:22:36;55677.31;;;-142.13;25.61
11712;BME280;5912;51.034;6.984;2023-05-29T12:27:43;55651.25;;;-142.13;25.42
11712;BME280;5912;51.034;6.984;2023-05-29T12:30:13;55677.31;;;-142.13;25.43
11712;BME280;5912;51.034;6.984;2023-05-29T12:32:44;55669.28;;;-142.13;25.26
11712;BME280;5912;51.034;6.984;2023-05-29T12:35:13;55653.28;;;-142.13;25.38
11712;BME280;5912;51.034;6.984;2023-05-29T12:40:16;55659.28;;;-142.13;25.72
11712;BME280;5912;51.034;6.984;2023-05-29T12:42:41;55671.28;;;-142.13;25.31
11712;BME280;5912;51.034;6.984;2023-05-29T12:45:07;55673.28;;;-142.13;25.27
11712;BME280;5912;51.034;6.984;2023-05-29T12:47:33;55699.34;;;-142.13;25.77
11712;BME280;5912;51.034;6.984;2023-05-29T12:49:59;55727.38;;;-142.13;26.12
11712;BME280;5912;51.034;6.984;2023-05-29T12:52:24;55727.38;;;-142.13;26.21
11712;BME280;5912;51.034;6.984;2023-05-29T12:54:49;55721.38;;;-142.13;26.59
11712;BME280;5912;51.034;6.984;2023-05-29T12:57:15;55725.38;;;-142.13;26.06
11712;BME280;5912;51.034;6.984;2023-05-29T12:59:40;55755.41;;;-142.13;26.81
11712;BME280;5912;51.034;6.984;2023-05-29T13:02:05;55759.41;;;-142.13;26.92
11712;BME280;5912;51.034;6.984;2023-05-29T13:04:33;55733.38;;;-142.13;26.28
11712;BME280;5912;51.034;6.984;2023-05-29T13:06:59;55739.38;;;-142.13;27.14
11712;BME280;5912;51.034;6.984;2023-05-29T13:09:24;55745.41;;;-142.13;26.46
11712;BME280;5912;51.034;6.984;2023-05-29T13:11:50;55729.38;;;-142.13;26.65